• Join FlightAware (Why Join?)
  • Login
  • US Flag 
02:17PM EDT


 

Airport Tracker/Info


-or-


 

Live Flight TrackerFlight Track Log ✈ UAL48 ✈ 07-May-2013 ✈ KEWR - VABB / BOM

Flight Track Log - Related Links

Times and Time Zones

All times are in EDT time to prevent confusion due to time zone crossing. See the UAL48 flight status page for this flight to view local times or setup timezone preferences in your user account.

Time Position Orientation Groundspeed Altitude Reporting Facility
EDT Latitude Longitude Course Direction KTS MPH feet Rate Location/Type
08:46PM 40.6747 -74.1800 206° Southwest 188 216 100  Level FlightAware ADS-B
08:47PM 40.6619 -74.1876 204° Southwest 184 212 900 2,520 Climbing FlightAware ADS-B
08:47PM 40.6586 -74.1884 190° South 181 208 1,000 1,080 Climbing FlightAware ADS-B
08:47PM 40.6479 -74.1915 192° South 192 221 1,200 1,200 Climbing FlightAware ADS-B
08:47PM 40.6391 -74.1995 215° Southwest 206 237 1,500 1,080 Climbing FlightAware ADS-B
08:47PM 40.6366 -74.2037 232° Southwest 211 243 1,500 840 Level FlightAware ADS-B
08:47PM 40.6351 -74.2071 240° Southwest 215 247 1,600 1,320 Climbing FlightAware ADS-B
08:47PM 40.6330 -74.2143 249° West 222 255 1,700 1,200 Climbing FlightAware ADS-B
08:47PM 40.6321 -74.2199 258° West 229 264 1,800 960 Climbing FlightAware ADS-B
08:48PM 40.6322 -74.2309 271° West 240 276 1,900 600 Climbing FlightAware ADS-B
08:48PM 40.6368 -74.2479 290° West 257 296 2,000 960 Climbing FlightAware ADS-B
08:48PM 40.6416 -74.2563 307° West 260 299 2,200 1,380 Climbing FlightAware ADS-B
08:48PM 40.6720 -74.2730 337° Northwest 267 307 2,900 1,560 Climbing FlightAware
08:49PM 40.6970 -74.2610 20° North 265 305 3,600 2,280 Climbing FlightAware
08:49PM 40.7160 -74.2390 41° Northeast 262 302 4,400 2,640 Climbing FlightAware ADS-B
08:49PM 40.7246 -74.2258 49° Northeast 260 299 4,900 2,700 Climbing FlightAware ADS-B
08:49PM 40.7328 -74.2117 52° Northeast 259 298 5,400 2,400 Climbing FlightAware ADS-B
08:50PM 40.7438 -74.1922 53° Northeast 260 299 6,000 2,100 Climbing FlightAware ADS-B
08:50PM 40.7572 -74.1685 53° Northeast 263 303 6,600 2,040 Climbing FlightAware ADS-B
08:50PM 40.7710 -74.1439 53° Northeast 264 304 7,300 2,100 Climbing FlightAware ADS-B
08:51PM 40.7829 -74.1233 53° Northeast 271 312 7,800 1,920 Climbing FlightAware ADS-B
08:51PM 40.7951 -74.1018 53° Northeast 276 318 8,300 1,980 Climbing FlightAware ADS-B
08:51PM 40.8084 -74.0787 53° Northeast 281 323 8,900 1,980 Climbing FlightAware ADS-B
08:51PM 40.8204 -74.0579 53° Northeast 284 327 9,400 1,500 Climbing FlightAware ADS-B
08:52PM 40.8326 -74.0367 53° Northeast 283 326 9,700 780 Climbing FlightAware ADS-B
08:52PM 40.8449 -74.0153 53° Northeast 286 329 9,800 360 Climbing FlightAware ADS-B
08:52PM 40.8577 -73.9927 53° Northeast 302 348 9,900  Climbing FlightAware ADS-B
08:52PM 40.8637 -73.9822 53° Northeast 311 358 9,800 -360 Descending FlightAware ADS-B
08:52PM 40.8734 -73.9653 53° Northeast 328 377 9,800  Level FlightAware ADS-B
08:53PM 40.8788 -73.9557 53° Northeast 336 387 9,800  Level FlightAware ADS-B
08:53PM 40.8849 -73.9438 56° Northeast 345 397 9,800  Level FlightAware ADS-B
08:53PM 40.8871 -73.9387 60° Northeast 346 398 9,800  Level FlightAware ADS-B
08:53PM 40.8885 -73.9351 63° Northeast 349 402 9,800  Level FlightAware ADS-B
08:53PM 40.8923 -73.9228 68° East 352 405 9,800  Level FlightAware ADS-B
08:53PM 40.8930 -73.9202 70° East 351 404 9,800  Level FlightAware ADS-B
08:53PM 40.9016 -73.8827 73° East 355 409 9,800  Level FlightAware ADS-B
08:53PM 40.9090 -73.8487 74° East 355 409 9,800 60 Level FlightAware ADS-B
08:54PM 40.9280 -73.7590 74° East 366 421 9,900 960 Climbing FlightAware
08:55PM 40.9660 -73.6830 56° Northeast 378 435 11,200 1,920 Climbing FlightAware
08:56PM 41.0280 -73.6350 30° Northeast 389 448 12,500 1,920 Climbing FlightAware
08:56PM 41.0508 -73.6197 27° Northeast 392 451 12,900 1,620 Climbing FlightAware ADS-B
08:56PM 41.1000 -73.5857 28° Northeast 397 457 13,700 1,740 Climbing FlightAware ADS-B
08:57PM 41.1518 -73.5492 28° Northeast 404 465 14,700 1,680 Climbing FlightAware ADS-B
08:57PM 41.2100 -73.5076 28° Northeast 404 465 15,600 1,440 Climbing FlightAware ADS-B
08:58PM 41.3070 -73.4380 28° Northeast 418 481 17,000 1,140 Climbing FlightAware
08:59PM 41.3980 -73.3730 28° Northeast 423 487 17,800 1,440 Climbing FlightAware
09:00PM 41.4770 -73.3440 15° North 435 501 19,300 1,680 Climbing FlightAware
09:01PM 41.5660 -73.3380 North 446 513 20,200 1,260 Climbing FlightAware
09:01PM 41.6540 -73.3330 North 450 518 21,100 1,320 Climbing FlightAware
09:02PM 41.6940 -73.3304 North 454 522 21,500 600 Climbing FlightAware ADS-B
09:02PM 41.7530 -73.3280 North 453 521 21,600 1,140 Climbing FlightAware
09:03PM 41.8640 -73.3190 North 462 532 23,100 1,620 Climbing FlightAware
09:04PM 41.9410 -73.3140 North 463 533 23,900 1,200 Climbing FlightAware
09:04PM 42.0230 -73.3080 North 467 537 24,600 480 Climbing FlightAware
09:05PM 42.1130 -73.3040 North 467 537 24,600  Level FlightAware
09:06PM 42.2050 -73.3000 North 467 537 24,600 1,680 Level FlightAware
09:06PM 42.2340 -73.2100 66° East 472 543 26,300 2,040 Climbing FlightAware
09:07PM 42.2980 -73.1470 36° Northeast 472 543 26,300 900 Level FlightAware
09:07PM 42.3110 -73.1310 42° Northeast 27,300 1,620 Climbing FlightAware
09:08PM 42.4040 -73.0350 37° Northeast 479 551 27,800 600 Climbing FlightAware
09:08PM 42.4760 -72.9600 38° Northeast 481 554 28,100 660 Climbing FlightAware
09:09PM 42.5520 -72.8820 37° Northeast 489 563 28,800 900 Climbing FlightAware
09:10PM 42.6370 -72.7940 37° Northeast 494 568 29,400 780 Climbing FlightAware
09:11PM 42.7160 -72.7120 37° Northeast 495 570 30,000 840 Climbing FlightAware
09:11PM 42.7900 -72.6350 37° Northeast 494 568 30,600 660 Climbing FlightAware
09:12PM 42.8720 -72.5480 38° Northeast 490 564 31,000 240 Climbing FlightAware
09:13PM 42.9500 -72.4660 38° Northeast 490 564 31,000  Level FlightAware
09:13PM 43.0230 -72.3890 38° Northeast 490 564 31,000  Level FlightAware
09:14PM 43.0940 -72.3140 38° Northeast 487 560 31,000  Level FlightAware
09:15PM 43.1760 -72.2270 38° Northeast 488 562 31,000  Level FlightAware
09:15PM 43.2360 -72.1620 38° Northeast 486 559 31,000  Level FlightAware
09:16PM 43.3250 -72.0680 38° Northeast 488 562 31,000  Level FlightAware
09:17PM 43.3960 -71.9920 38° Northeast 487 560 31,000  Level FlightAware
09:18PM 43.4780 -71.9040 38° Northeast 490 564 31,000  Level FlightAware
09:18PM 43.5490 -71.8270 38° Northeast 490 564 31,000  Level FlightAware
09:19PM 43.6210 -71.7490 38° Northeast 488 562 31,000  Level FlightAware
09:20PM 43.6980 -71.6660 38° Northeast 489 563 31,000  Level FlightAware
09:20PM 43.7700 -71.5870 38° Northeast 488 562 31,000  Level FlightAware
09:21PM 43.8500 -71.4990 38° Northeast 486 559 31,000  Level FlightAware
09:22PM 43.9220 -71.4200 38° Northeast 487 560 31,000  Level FlightAware
09:22PM 43.9920 -71.3430 38° Northeast 486 559 31,000  Level FlightAware
09:23PM 44.0650 -71.2630 38° Northeast 481 554 31,000  Level FlightAware
09:24PM 44.1390 -71.1800 39° Northeast 488 562 31,000  Level FlightAware
09:25PM 44.2070 -71.1050 38° Northeast 490 564 31,000  Level FlightAware
09:25PM 44.2890 -71.0140 38° Northeast 490 564 31,000  Level FlightAware
09:26PM 44.3620 -70.9320 39° Northeast 488 562 31,000  Level FlightAware
09:27PM 44.4380 -70.8470 39° Northeast 487 560 31,000  Level FlightAware
09:27PM 44.5100 -70.7660 39° Northeast 485 558 31,000  Level FlightAware
09:28PM 44.6040 -70.6600 39° Northeast 484 557 31,000  Level FlightAware
09:29PM 44.6740 -70.5800 39° Northeast 485 558 31,000  Level FlightAware
09:30PM 44.7520 -70.4920 39° Northeast 485 558 31,000  Level FlightAware
09:30PM 44.8330 -70.3990 39° Northeast 485 558 31,000  Level FlightAware
09:31PM 44.8980 -70.3250 39° Northeast 485 558 31,000  Level FlightAware
09:32PM 44.9650 -70.2470 39° Northeast 490 564 31,000  Level FlightAware
09:33PM 45.0460 -70.1530 39° Northeast 493 567 31,000  Level FlightAware
09:33PM 45.1160 -70.0730 39° Northeast 491 565 31,000  Level FlightAware
09:34PM 45.1930 -69.9830 39° Northeast 490 564 31,000  Level FlightAware
09:35PM 45.2560 -69.9090 40° Northeast 488 562 31,000  Level FlightAware
09:35PM 45.3350 -69.8180 39° Northeast 489 563 31,000  Level FlightAware
09:36PM 45.4120 -69.7260 40° Northeast 489 563 31,000  Level FlightAware
09:37PM 45.4810 -69.6450 39° Northeast 487 560 31,000  Level FlightAware
09:37PM 45.5600 -69.5520 39° Northeast 485 558 31,000  Level FlightAware
09:38PM 45.6190 -69.4810 40° Northeast 487 560 31,000  Level FlightAware
09:39PM 45.6960 -69.3910 39° Northeast 486 559 31,000  Level FlightAware
09:40PM 45.7740 -69.2970 40° Northeast 486 559 31,000  Level FlightAware
09:40PM 45.8430 -69.2140 40° Northeast 488 562 31,000  Level FlightAware
09:41PM 45.9210 -69.1200 40° Northeast 486 559 31,000  Level FlightAware
09:42PM 45.9880 -69.0390 40° Northeast 483 556 31,000  Level FlightAware
09:42PM 46.0570 -68.9560 40° Northeast 484 557 31,000  Level FlightAware
09:43PM 46.1340 -68.8620 40° Northeast 490 564 31,000  Level FlightAware
09:44PM 46.2030 -68.7780 40° Northeast 491 565 31,000  Level FlightAware
09:44PM 46.2720 -68.6930 40° Northeast 490 564 31,000  Level FlightAware
09:45PM 46.3500 -68.5970 40° Northeast 491 565 31,000  Level FlightAware
09:46PM 46.4190 -68.5130 40° Northeast 492 566 31,000  Level FlightAware
09:47PM 46.4960 -68.4180 40° Northeast 492 566 31,000  Level FlightAware
09:47PM 46.5430 -68.3590 41° Northeast 491 565 31,000  Level FlightAware
09:48PM 46.6300 -68.2520 40° Northeast 490 564 31,000  Level FlightAware
09:49PM 46.7090 -68.1510 41° Northeast 485 558 31,000  Level FlightAware
09:50PM 46.8060 -68.0300 40° Northeast 485 558 31,000  Level FlightAware
09:50PM 46.8560 -67.9660 41° Northeast 484 557 31,000  Level FlightAware
09:51PM 46.9630 -67.8320 40° Northeast 484 557 31,000  Level FlightAware
09:52PM 47.0210 -67.7610 40° Northeast 484 557 31,000  Level FlightAware
09:53PM 47.0940 -67.6710 40° Northeast 484 557 31,000  Level FlightAware
09:53PM 47.1530 -67.5990 40° Northeast 484 557 31,000  Level FlightAware
09:54PM 47.2110 -67.5270 40° Northeast 484 557 31,000  Level FlightAware
09:55PM 47.2690 -67.4550 40° Northeast 484 557 31,000  Level FlightAware
09:55PM 47.3270 -67.3830 40° Northeast 484 557 31,000  Level FlightAware
09:56PM 47.3860 -67.3100 40° Northeast 484 557 31,000  Level FlightAware
09:57PM 47.4590 -67.2200 40° Northeast 484 557 31,000  Level FlightAware
09:57PM 47.5170 -67.1480 40° Northeast 484 557 31,000  Level FlightAware
09:58PM 47.5750 -67.0750 40° Northeast 484 557 31,000  Level FlightAware
09:59PM 47.6340 -67.0020 40° Northeast 484 557 31,000  Level FlightAware
10:00PM 47.7070 -66.9120 40° Northeast 484 557 31,000  Level FlightAware
10:00PM 47.7650 -66.8390 40° Northeast 484 557 31,000  Level FlightAware
10:01PM 47.9000 -66.5167 40° Northeast 490 564 31,000  Level Moncton Center
10:02PM 48.0000 -66.3500 48° Northeast 490 564 31,000  Level Moncton Center
10:03PM 48.0833 -66.2000 50° Northeast 490 564 31,000  Level Moncton Center
10:04PM 48.1833 -66.0500 45° Northeast 480 552 31,000 -180 Level Moncton Center
10:05PM 48.2833 -65.9000 45° Northeast 490 564 30,700 -660 Descending Moncton Center
10:06PM 48.3833 -65.7500 45° Northeast 480 552 29,700 -780 Descending Moncton Center
10:07PM 48.4667 -65.6333 43° Northeast 470 541 29,200 -360 Descending Moncton Center
10:08PM 48.5500 -65.4833 50° Northeast 450 518 29,000 -120 Descending Moncton Center
10:09PM 48.6333 -65.3667 43° Northeast 430 495 29,000  Level Moncton Center
10:10PM 48.7167 -65.2333 47° Northeast 430 495 29,000  Level Moncton Center
10:11PM 48.8000 -65.1167 43° Northeast 420 483 29,000  Level Moncton Center
10:12PM 48.8667 -64.9833 53° Northeast 420 483 29,000  Level Moncton Center
10:13PM 48.9500 -64.8333 50° Northeast 410 472 29,000  Level Moncton Center
10:14PM 49.0333 -64.7333 38° Northeast 420 483 29,000  Level Moncton Center
10:15PM 49.1000 -64.5833 56° Northeast 410 472 29,000  Level Moncton Center
10:15PM 49.1333 -64.5500 33° Northeast 410 472 29,000  Level Gander Center
10:16PM 49.2000 -64.4333 49° Northeast 420 483 29,000  Level Gander Center
10:17PM 49.2667 -64.3167 49° Northeast 420 483 29,000  Level Moncton Center
10:18PM 49.3500 -64.1833 46° Northeast 430 495 29,000  Level Moncton Center
10:19PM 49.4333 -64.0667 42° Northeast 430 495 29,000  Level Moncton Center
10:20PM 49.5167 -63.9000 52° Northeast 440 506 29,000  Level Moncton Center
10:21PM 49.5833 -63.7833 49° Northeast 450 518 29,000  Level Moncton Center
10:21PM 49.6333 -63.7333 33° Northeast 450 518 29,000  Level Gander Center
10:22PM 49.7167 -63.6167 42° Northeast 450 518 29,000  Level Gander Center
10:23PM 49.7667 -63.4833 60° Northeast 460 529 29,000  Level Moncton Center
10:24PM 49.8500 -63.3333 49° Northeast 460 529 29,000  Level Moncton Center
10:24PM 49.8833 -63.3000 33° Northeast 460 529 29,000  Level Gander Center
10:25PM 49.9667 -63.1500 49° Northeast 460 529 29,000  Level Gander Center
10:26PM 50.0333 -63.0500 44° Northeast 460 529 29,000  Level Moncton Center
10:27PM 50.1167 -62.9167 46° Northeast 460 529 29,000  Level Moncton Center
10:27PM 50.1500 -62.8500 52° Northeast 470 541 29,000  Level Gander Center
10:28PM 50.2333 -62.7000 49° Northeast 460 529 29,000  Level Gander Center
10:29PM 50.3167 -62.5333 52° Northeast 470 541 29,000  Level Gander Center
10:30PM 50.4000 -62.3833 49° Northeast 480 552 29,000  Level Gander Center
10:31PM 50.4833 -62.2500 45° Northeast 470 541 29,000  Level Gander Center
10:32PM 50.5667 -62.0667 54° Northeast 470 541 29,000  Level Gander Center
10:33PM 50.6500 -61.9333 45° Northeast 450 518 29,000  Level Gander Center
10:34PM 50.7500 -61.7500 49° Northeast 480 552 29,000 180 Level Gander Center
10:35PM 50.8333 -61.6000 49° Northeast 480 552 29,400 600 Climbing Gander Center
10:36PM 50.9167 -61.4333 52° Northeast 490 564 30,300 840 Climbing Gander Center
10:37PM 51.0000 -61.2833 49° Northeast 490 564 31,100 780 Climbing Gander Center
10:38PM 51.0833 -61.1167 51° Northeast 490 564 31,900 720 Climbing Gander Center
10:39PM 51.1833 -60.9667 43° Northeast 490 564 32,600 540 Climbing Gander Center
10:40PM 51.2667 -60.7667 56° Northeast 500 575 33,000 180 Climbing Gander Center
10:41PM 51.3667 -60.6167 43° Northeast 500 575 33,000  Level Gander Center
10:42PM 51.4500 -60.4500 51° Northeast 490 564 33,000  Level Gander Center
10:43PM 51.5500 -60.2667 49° Northeast 490 564 33,000  Level Gander Center
10:44PM 51.6167 -60.1000 57° Northeast 500 575 33,000  Level Gander Center
10:45PM 51.7167 -59.9000 51° Northeast 500 575 33,000  Level Gander Center
10:46PM 51.8000 -59.7333 51° Northeast 500 575 33,000  Level Gander Center
10:47PM 51.8833 -59.5833 48° Northeast 500 575 33,000  Level Gander Center
10:48PM 51.9667 -59.3833 56° Northeast 500 575 33,000  Level Gander Center
10:49PM 52.0333 -59.2167 57° Northeast 510 587 33,000  Level Gander Center
10:50PM 52.1000 -59.0833 51° Northeast 510 587 33,000  Level Moncton Center
10:50PM 52.1333 -59.0167 51° Northeast 510 587 33,000  Level Gander Center
10:51PM 52.2167 -58.8333 53° Northeast 510 587 33,000  Level Gander Center
10:52PM 52.3000 -58.6333 56° Northeast 510 587 33,000  Level Gander Center
10:53PM 52.3833 -58.4667 51° Northeast 510 587 33,000  Level Gander Center
10:54PM 52.4667 -58.2667 56° Northeast 510 587 33,000  Level Gander Center
10:55PM 52.5500 -58.0667 56° Northeast 510 587 33,000  Level Gander Center
10:56PM 52.6333 -57.9000 50° Northeast 520 598 33,000  Level Gander Center
10:57PM 52.7167 -57.7000 55° Northeast 520 598 33,000  Level Gander Center
10:58PM 52.8000 -57.5000 55° Northeast 520 598 33,000  Level Gander Center
10:59PM 52.9000 -57.2833 53° Northeast 520 598 33,000  Level Gander Center
11:00PM 52.9667 -57.1167 56° Northeast 520 598 33,000  Level Gander Center
11:01PM 53.0667 -56.9167 50° Northeast 520 598 33,000  Level Gander Center
11:02PM 53.1500 -56.7167 55° Northeast 530 610 33,000  Level Gander Center
11:03PM 53.2167 -56.5000 63° Northeast 530 610 33,000  Level Gander Center
11:04PM 53.3167 -56.3000 50° Northeast 530 610 33,000  Level Gander Center
11:05PM 53.3833 -56.1000 61° Northeast 530 610 33,000  Level Gander Center
11:06PM 53.4833 -55.8833 52° Northeast 530 610 33,000  Level Gander Center
11:07PM 53.5500 -55.6833 61° Northeast 540 621 33,000  Level Gander Center
11:08PM 53.6333 -55.4667 57° Northeast 540 621 33,000  Level Gander Center
11:09PM 53.7333 -55.2667 50° Northeast 540 621 33,000  Level Gander Center
11:10PM 53.8000 -55.0500 62° Northeast 540 621 33,000  Level Gander Center
11:11PM 53.8833 -54.8833 50° Northeast 540 621 33,000  Level Moncton Center
11:11PM 53.9000 -54.8333 60° Northeast 540 621 33,000  Level Gander Center
11:12PM 54.0167 -54.5833 51° Northeast 540 621 33,000  Level Gander Center
11:13PM 54.0833 -54.4667 46° Northeast 530 610 33,000  Level Gander Center
11:14PM 54.1667 -54.2833 52° Northeast 540 621 33,000  Level Gander Center
11:15PM 54.2500 -54.0667 57° Northeast 540 621 33,000  Level Gander Center
11:16PM 54.3500 -53.8833 47° Northeast 540 621 33,000  Level Gander Center
11:17PM 54.4333 -53.6667 56° Northeast 540 621 33,000  Level Gander Center
11:18PM 54.5333 -53.4333 53° Northeast 540 621 33,000  Level Gander Center
11:19PM 54.6167 -53.2500 52° Northeast 540 621 33,000  Level Gander Center
11:21PM 54.7436 -52.9969 49° Northeast  Level FlightAware Approximate
11:21PM 54.8333 -52.7333 49° Northeast 320 368 33,000  Level Gander Center
11:22PM 54.9333 -52.5500 46° Northeast 520 598 33,000  Level Gander Center
11:23PM 55.0167 -52.3167 58° Northeast 540 621 33,000  Level Gander Center
11:24PM 55.0500 -52.2500 49° Northeast 540 621 33,000  Level Gander Center
11:24PM 55.1000 -52.1000 60° Northeast 540 621 33,000  Level Gander Center
11:25PM 55.1500 -52.0333 37° Northeast 540 621 33,000  Level Gander Center
11:26PM 55.2333 -51.8333 54° Northeast 540 621 33,000  Level Gander Center
11:26PM 55.2833 -51.7000 57° Northeast 540 621 33,000  Level Gander Center
11:27PM 55.3667 -51.4667 58° Northeast 540 621 33,000  Level Gander Center
11:28PM 55.4000 -51.3833 55° Northeast 540 621 33,000  Level Gander Center
11:28PM 55.4667 -51.2667 45° Northeast 540 621 33,000  Level Gander Center
11:29PM 55.5500 -51.0333 58° Northeast 540 621 33,000  Level Gander Center
11:30PM 55.5833 -50.9500 55° Northeast 540 621 33,000  Level Gander Center
11:31PM 55.6667 -50.7500 53° Northeast 540 621 33,000  Level Gander Center
11:33PM 55.7644 -50.5326 51° Northeast  Level FlightAware Approximate
11:40PM 56.3111 -49.1343 57° Northeast  Level FlightAware Approximate
11:41PM 56.3840 -48.9268 58° Northeast  Level FlightAware Approximate
11:42PM 56.4565 -48.7182 58° Northeast  Level FlightAware Approximate
11:43PM 56.5284 -48.5086 58° Northeast  Level FlightAware Approximate
11:43PM 56.6833 -47.9833 59° Northeast 550 633 33,000  Level Gander Center
11:44PM 56.6000 -48.2983 58° Northeast  Level FlightAware Approximate
11:44PM 56.7667 -47.7333 59° Northeast 550 633 33,000  Level Gander Center
11:45PM 56.6712 -48.0871 58° Northeast  Level FlightAware Approximate
11:45PM 56.8500 -47.4833 59° Northeast 550 633 33,000  Level Gander Center
11:46PM 56.7421 -47.8752 59° Northeast  Level FlightAware Approximate
11:46PM 56.9167 -47.2500 62° Northeast 550 633 33,000  Level Gander Center
11:47PM 56.8126 -47.6625 59° Northeast  Level FlightAware Approximate
11:47PM 57.0000 -47.0333 55° Northeast 550 633 33,000  Level Gander Center
11:48PM 56.8817 -47.4479 59° Northeast  Level FlightAware Approximate
11:48PM 57.0833 -46.7833 58° Northeast 550 633 33,000  Level Gander Center
11:49PM 57.1500 -46.5333 64° Northeast 550 633 33,000  Level Gander Center
11:50PM 57.2167 -46.2833 64° Northeast 550 633 33,000  Level Gander Center
11:51PM 57.3000 -46.0667 54° Northeast 550 633 33,000  Level Gander Center
11:52PM 57.3833 -45.8167 58° Northeast 550 633 33,000  Level Gander Center
11:53PM 57.4500 -45.5667 64° Northeast 550 633 33,000  Level Gander Center
11:54PM 57.5333 -45.3000 60° Northeast 550 633 33,000  Level Gander Center
11:55PM 57.6000 -45.0833 60° Northeast 550 633 33,000  Level Gander Center
11:56PM 57.6667 -44.8333 63° Northeast 550 633 33,000  Level Gander Center
11:57PM 57.7500 -44.5833 58° Northeast 550 633 33,000  Level Gander Center
11:58PM 57.8167 -44.3167 65° Northeast 550 633 33,000  Level Gander Center
11:59PM 57.9000 -44.0833 56° Northeast 550 633 33,000  Level Gander Center
12:00AM 57.9667 -43.8333 63° Northeast 550 633 33,000  Level Gander Center
12:01AM 58.0333 -43.5667 65° Northeast 550 633 33,000  Level Gander Center
12:02AM 58.1000 -43.3167 63° Northeast 550 633 33,000  Level Gander Center
12:03AM 58.1833 -43.0500 59° Northeast 550 633 33,000  Level Gander Center
12:04AM 58.2500 -42.8167 61° Northeast 550 633 33,000  Level Gander Center
12:05AM 58.3167 -42.5500 64° Northeast 550 633 33,000  Level Gander Center
12:06AM 58.3833 -42.2833 64° Northeast 550 633 33,000  Level Gander Center
12:07AM 58.4500 -42.0333 63° Northeast 550 633 33,000  Level Gander Center
12:08AM 58.5167 -41.7833 63° Northeast 550 633 33,000  Level Gander Center
12:09AM 58.6000 -41.5167 59° Northeast 550 633 33,000  Level Gander Center
12:10AM 58.6500 -41.2500 70° East 540 621 33,000  Level Gander Center
12:11AM 58.7167 -41.0167 61° Northeast 540 621 33,000  Level Gander Center
12:12AM 58.7833 -40.7500 64° Northeast 540 621 33,000  Level Gander Center
12:13AM 58.8500 -40.4833 64° Northeast 540 621 33,000  Level Gander Center
12:14AM 58.9167 -40.2333 63° Northeast 540 621 33,000  Level Gander Center
12:15AM 58.9667 -39.9667 70° East 540 621 33,000  Level Gander Center
12:16AM 59.0333 -39.7000 64° Northeast 540 621 33,000  Level Gander Center
12:17AM 59.1000 -39.4500 62° Northeast 540 621 33,000  Level Gander Center
12:18AM 59.1667 -39.1667 65° Northeast 540 621 33,000  Level Gander Center
12:19AM 59.2333 -38.9333 61° Northeast 530 610 33,000  Level Gander Center
12:20AM 59.2833 -38.6833 69° East 530 610 33,000  Level Gander Center
12:21AM 59.3500 -38.4000 65° Northeast 530 610 33,000  Level Gander Center
12:22AM 59.4000 -38.1667 67° East 530 610 33,000  Level Gander Center
12:23AM 59.4667 -37.8833 65° Northeast 530 610 33,000  Level Gander Center
12:24AM 59.5167 -37.6333 68° East 530 610 33,000  Level Gander Center
12:25AM 59.5833 -37.3833 62° Northeast 530 610 33,000  Level Gander Center
12:26AM 59.6333 -37.1000 71° East 530 610 33,000  Level Gander Center
12:27AM 59.7000 -36.8500 62° Northeast 530 610 33,000  Level Gander Center
12:28AM 59.7500 -36.6000 68° East 530 610 33,000  Level Gander Center
12:29AM 59.8167 -36.3167 65° Northeast 530 610 33,000  Level Gander Center
12:30AM 59.8667 -36.0500 69° East 530 610 33,000  Level Gander Center
12:31AM 59.9333 -35.7667 65° Northeast 520 598 33,000  Level Gander Center
12:32AM 59.9833 -35.5167 68° East 520 598 33,000  Level Gander Center
12:33AM 60.0333 -35.2667 68° East 520 598 33,000  Level Gander Center
12:34AM 60.0833 -35.0167 68° East 520 598 33,000  Level Gander Center
12:36AM 60.1829 -34.5302 67° East  Level FlightAware Approximate
12:43AM 60.6014 -32.3450 68° East  Level FlightAware Approximate
12:44AM 60.6582 -32.0282 70° East  Level FlightAware Approximate
12:45AM 60.7143 -31.7104 70° East  Level FlightAware Approximate
12:46AM 60.7696 -31.3914 70° East  Level FlightAware Approximate
12:47AM 60.8242 -31.0714 71° East  Level FlightAware Approximate
12:48AM 60.8780 -30.7503 71° East  Level FlightAware Approximate
12:49AM 60.9310 -30.4281 71° East  Level FlightAware Approximate
12:50AM 60.9833 -30.1048 71° East  Level FlightAware Approximate
12:51AM 61.0308 -29.7779 74° East  Level FlightAware Approximate
12:52AM 61.0756 -29.4489 74° East  Level FlightAware Approximate
12:53AM 61.1197 -29.1191 74° East  Level FlightAware Approximate
12:54AM 61.1629 -28.7883 75° East  Level FlightAware Approximate
12:55AM 61.2053 -28.4566 75° East  Level FlightAware Approximate
12:56AM 61.2472 -28.1242 75° East  Level FlightAware Approximate
12:57AM 61.2885 -27.7909 75° East  Level FlightAware Approximate
12:58AM 61.3289 -27.4568 76° East  Level FlightAware Approximate
12:59AM 61.3685 -27.1219 76° East  Level FlightAware Approximate
01:00AM 61.4072 -26.7861 76° East  Level FlightAware Approximate
01:01AM 61.4452 -26.4495 77° East  Level FlightAware Approximate
01:02AM 61.4823 -26.1120 77° East  Level FlightAware Approximate
01:03AM 61.5185 -25.7738 77° East  Level FlightAware Approximate
01:04AM 61.5540 -25.4349 78° East  Level FlightAware Approximate
01:05AM 61.5886 -25.0951 78° East  Level FlightAware Approximate
01:06AM 61.6224 -24.7546 78° East  Level FlightAware Approximate
01:07AM 61.6553 -24.4134 78° East  Level FlightAware Approximate
01:07AM 61.4320 -26.5850 78° East 479 551 33,000  Level FlightAware
01:07AM 61.4520 -26.4050 77° East 477 549 33,000  Level FlightAware
01:08AM 61.4720 -26.2250 77° East 475 547 33,000  Level FlightAware
01:09AM 61.4940 -26.0230 77° East 475 547 33,000  Level FlightAware
01:09AM 61.5130 -25.8420 78° East 479 551 33,000  Level FlightAware
01:10AM 61.5340 -25.6420 77° East 482 555 33,000  Level FlightAware
01:11AM 61.5530 -25.4610 77° East 481 554 33,000 180 Level FlightAware
01:11AM 61.5750 -25.2500 78° East 483 556 33,300 300 Climbing FlightAware
01:12AM 61.5960 -25.0840 75° East 483 556 33,500 120 Climbing FlightAware
01:13AM 61.6160 -24.9300 75° East 483 556 33,500 960 Level FlightAware
01:14AM 61.6550 -24.6930 71° East 489 563 34,900 1,020 Climbing FlightAware
01:14AM 61.6840 -24.5060 72° East 492 566 35,000 60 Climbing FlightAware
01:15AM 61.7130 -24.3100 73° East 490 564 35,000  Level FlightAware
01:16AM 61.7400 -24.1270 73° East 491 565 35,000  Level FlightAware
01:16AM 61.7660 -23.9460 73° East 493 567 35,000  Level FlightAware
01:17AM 61.7970 -23.7300 73° East 495 570 35,000  Level FlightAware
01:18AM 61.8180 -23.5830 73° East 495 570 35,000  Level FlightAware
01:18AM 61.8520 -23.3410 73° East 493 567 35,000  Level FlightAware
01:19AM 61.8770 -23.1610 74° East 492 566 35,000  Level FlightAware
01:20AM 61.9060 -22.9460 74° East 491 565 35,000  Level FlightAware
01:21AM 61.9310 -22.7610 74° East 490 564 35,000  Level FlightAware
01:21AM 61.9550 -22.5780 74° East 491 565 35,000  Level FlightAware
01:22AM 61.9800 -22.3920 74° East 495 570 35,000  Level FlightAware
01:23AM 62.0060 -22.1880 75° East 495 570 35,000  Level FlightAware
01:23AM 62.0310 -21.9970 74° East 499 574 35,000  Level FlightAware
01:24AM 62.0590 -21.7760 75° East 497 572 35,000  Level FlightAware
01:25AM 62.0820 -21.5930 75° East 495 570 35,000  Level FlightAware
01:25AM 62.1050 -21.4020 75° East 496 571 35,000  Level FlightAware
01:26AM 62.1310 -21.1930 75° East 494 568 35,000  Level FlightAware
01:27AM 62.1530 -21.0070 76° East 498 573 35,000  Level FlightAware
01:28AM 62.1790 -20.7850 76° East 501 577 35,000  Level FlightAware
01:28AM 62.2020 -20.5930 76° East 503 579 35,000  Level FlightAware
01:29AM 62.2240 -20.3980 76° East 505 581 35,000  Level FlightAware
01:30AM 62.2490 -20.1840 76° East 505 581 35,000  Level FlightAware
01:30AM 62.2700 -19.9900 77° East 505 581 35,000  Level FlightAware
01:31AM 62.2940 -19.7740 76° East 504 580 35,000  Level FlightAware
01:32AM 62.3150 -19.5770 77° East 503 579 35,000  Level FlightAware
01:32AM 62.3360 -19.3840 77° East 500 575 35,000  Level FlightAware
01:33AM 62.3580 -19.1720 77° East 499 574 35,000  Level FlightAware
01:34AM 62.3790 -18.9750 77° East 499 574 35,000  Level FlightAware
01:34AM 62.3990 -18.7800 77° East 501 577 35,000  Level FlightAware
01:35AM 62.4210 -18.5530 78° East 505 581 35,000  Level FlightAware
01:36AM 62.4410 -18.3600 77° East 506 582 35,000  Level FlightAware
01:37AM 62.4620 -18.1400 78° East 507 583 35,000  Level FlightAware
01:37AM 62.4810 -17.9410 78° East 508 585 35,000  Level FlightAware
01:38AM 62.5020 -17.7150 79° East 508 585 35,000  Level FlightAware
01:39AM 62.5210 -17.5140 78° East 508 585 35,000  Level FlightAware
01:39AM 62.5400 -17.2960 79° East 509 586 35,000  Level FlightAware
01:40AM 62.5580 -17.0950 79° East 509 586 35,000  Level FlightAware
01:41AM 62.5760 -16.8950 79° East 506 582 35,000  Level FlightAware
01:42AM 62.5950 -16.6680 80° East 505 581 35,000  Level FlightAware
01:42AM 62.6120 -16.4710 79° East 503 579 35,000  Level FlightAware
01:43AM 62.6280 -16.2730 80° East 500 575 35,000  Level FlightAware
01:44AM 62.6460 -16.0560 80° East 499 574 35,000  Level FlightAware
01:44AM 62.6640 -15.8280 80° East 499 574 35,000  Level FlightAware
01:45AM 62.6790 -15.6390 80° East 498 573 35,000  Level FlightAware
01:46AM 62.6940 -15.4370 81° East 500 575 35,000  Level FlightAware
01:46AM 62.7110 -15.2170 80° East 501 577 35,000  Level FlightAware
01:47AM 62.7250 -15.0150 81° East 502 578 35,000  Level FlightAware
01:48AM 62.7420 -14.7860 81° East 501 577 35,000  Level FlightAware
01:49AM 62.7560 -14.5870 81° East 500 575 35,000  Level FlightAware
01:49AM 62.7690 -14.3980 81° East 499 574 35,000  Level FlightAware
01:50AM 62.7840 -14.1690 82° East 499 574 35,000  Level FlightAware
01:51AM 62.7970 -13.9720 82° East 497 572 35,000  Level FlightAware
01:51AM 62.8100 -13.7720 82° East 496 571 35,000  Level FlightAware
01:52AM 62.8240 -13.5470 82° East 496 571 35,000  Level FlightAware
01:53AM 62.8360 -13.3490 82° East 495 570 35,000  Level FlightAware
01:53AM 62.8490 -13.1300 82° East 496 571 35,000  Level FlightAware
01:54AM 62.8600 -12.9320 83° East 494 568 35,000  Level FlightAware
01:55AM 62.8710 -12.7320 83° East 494 568 35,000  Level FlightAware
01:56AM 62.8840 -12.5080 83° East 495 570 35,000  Level FlightAware
01:56AM 62.8940 -12.3150 83° East 496 571 35,000  Level FlightAware
01:57AM 62.9050 -12.0900 84° East 497 572 35,000  Level FlightAware
01:58AM 62.9160 -11.8890 83° East 498 573 35,000  Level FlightAware
01:58AM 62.9250 -11.6880 84° East 498 573 35,000  Level FlightAware
01:59AM 62.9360 -11.4650 84° East 499 574 35,000  Level FlightAware
02:00AM 62.9450 -11.2560 84° East 499 574 35,000  Level FlightAware
02:00AM 62.9550 -11.0350 84° East 499 574 35,000  Level FlightAware
02:01AM 62.9640 -10.8320 84° East 498 573 35,000  Level FlightAware
02:02AM 62.9730 -10.6100 85° East 495 570 35,000  Level FlightAware
02:03AM 62.9810 -10.4050 85° East 492 566 35,000  Level FlightAware
02:03AM 62.9890 -10.2040 85° East 490 564 35,000  Level FlightAware
02:04AM 62.9970 -9.9830 85° East 490 564 35,000  Level FlightAware
02:05AM 63.0040 -9.7860 85° East 492 566 35,000  Level FlightAware
02:05AM 63.0110 -9.5620 86° East 490 564 35,000  Level FlightAware
02:06AM 63.0170 -9.3770 86° East 489 563 35,000  Level FlightAware
02:07AM 63.0230 -9.1840 86° East 490 564 35,000  Level FlightAware
02:07AM 63.0280 -9.0150 86° East 490 564 35,000  Level FlightAware
02:08AM 63.0340 -8.8450 85° East 490 564 35,000  Level FlightAware
02:09AM 63.0430 -8.4940 87° East 490 564 35,000  Level FlightAware
02:10AM 63.0480 -8.3240 86° East 490 564 35,000  Level FlightAware
02:10AM 63.0540 -8.1550 85° East 490 564 35,000  Level FlightAware
02:11AM 63.0570 -7.8400 89° East 494 568 35,000  Level FlightAware
02:12AM 63.0610 -7.6470 87° East 494 568 35,000  Level FlightAware
02:13AM 63.0640 -7.4420 88° East 493 567 35,000  Level FlightAware
02:13AM 63.0680 -7.2080 88° East 494 568 35,000  Level FlightAware
02:14AM 63.0710 -7.0090 88° East 493 567 35,000  Level FlightAware
02:15AM 63.0740 -6.7860 88° East 494 568 35,000  Level FlightAware
02:15AM 63.0770 -6.5930 88° East 494 568 35,000  Level FlightAware
02:16AM 63.0790 -6.3910 89° East 496 571 35,000  Level FlightAware
02:17AM 63.0810 -6.1540 89° East 496 571 35,000  Level FlightAware
02:17AM 63.0830 -5.9560 89° East 495 570 35,000  Level FlightAware
02:18AM 63.0840 -5.7540 89° East 496 571 35,000  Level FlightAware
02:19AM 63.0850 -5.5330 89° East 497 572 35,000  Level FlightAware
02:20AM 63.0860 -5.3470 89° East 497 572 35,000  Level FlightAware
02:20AM 63.0860 -5.1200 90° East 496 571 35,000  Level FlightAware
02:21AM 63.0860 -4.9240 90° East 496 571 35,000  Level FlightAware
02:22AM 63.0860 -4.6960 90° East 496 571 35,000  Level FlightAware
02:22AM 63.0860 -4.4730 90° East 495 570 35,000  Level FlightAware
02:23AM 63.0850 -4.2680 91° East 495 570 35,000  Level FlightAware
02:24AM 63.0840 -4.0380 90° East 494 568 35,000  Level FlightAware
02:24AM 63.0820 -3.8370 91° East 496 571 35,000  Level FlightAware
02:25AM 63.0800 -3.6220 91° East 496 571 35,000  Level FlightAware
02:26AM 63.0780 -3.4190 91° East 496 571 35,000  Level FlightAware
02:27AM 63.0760 -3.2150 91° East 496 571 35,000  Level FlightAware
02:27AM 63.0730 -2.9900 92° East 496 571 35,000  Level FlightAware
02:28AM 63.0700 -2.8090 92° East 495 570 35,000  Level FlightAware
02:29AM 63.0670 -2.5790 92° East 495 570 35,000  Level FlightAware
02:29AM 63.0630 -2.3900 93° East 495 570 35,000  Level FlightAware
02:30AM 63.0600 -2.1840 92° East 494 568 35,000  Level FlightAware
02:31AM 63.0550 -1.9570 93° East 493 567 35,000  Level FlightAware
02:31AM 63.0500 -1.7450 93° East 493 567 35,000  Level FlightAware
02:32AM 63.0460 -1.5430 92° East 493 567 35,000  Level FlightAware
02:33AM 63.0400 -1.3170 93° East 494 568 35,000  Level FlightAware
02:34AM 63.0350 -1.1160 93° East 494 568 35,000  Level FlightAware
02:34AM 63.0290 -0.9010 93° East 495 570 35,000  Level FlightAware
02:35AM 63.0230 -0.7160 94° East 496 571 35,000  Level FlightAware
02:36AM 63.0170 -0.4980 93° East 496 571 35,000  Level FlightAware
02:36AM 63.0080 -0.2460 94° East 494 568 35,000  Level FlightAware
02:37AM 63.0030 -0.0560 93° East 494 568 35,000  Level FlightAware
02:38AM 63.0120 0.1740 85° East 497 572 35,000  Level FlightAware
02:38AM 63.0250 0.3750 82° East 498 573 35,000  Level FlightAware
02:39AM 63.0390 0.5700 81° East 499 574 35,000  Level FlightAware
02:40AM 63.0540 0.7950 82° East 501 577 35,000  Level FlightAware
02:41AM 63.0670 1.0060 82° East 500 575 35,000  Level FlightAware
02:41AM 63.0810 1.2270 82° East 35,000  Level FlightAware
02:42AM 63.0910 1.3870 82° East 500 575 35,000  Level FlightAware
02:43AM 63.1040 1.5970 82° East 500 575 35,000  Level FlightAware
02:43AM 63.1150 1.7690 82° East 500 575 35,000  Level FlightAware
02:44AM 63.1260 1.9420 82° East 500 575 35,000  Level FlightAware
02:45AM 63.1400 2.2350 84° East 35,000  Level FlightAware
02:46AM 63.1630 2.6730 83° East 35,000  Level FlightAware
02:47AM 63.1750 2.9200 84° East 505 581 35,000  Level FlightAware
02:47AM 63.1830 3.0750 83° East 505 581 35,000  Level FlightAware
02:48AM 63.1960 3.3450 84° East 506 582 35,000  Level FlightAware
02:49AM 63.2060 3.5720 84° East 508 585 35,000  Level FlightAware
02:50AM 63.2140 3.7650 85° East 508 585 35,000  Level FlightAware
02:50AM 63.2250 4.0230 84° East 510 587 35,000  Level FlightAware
02:51AM 63.2320 4.1950 85° East 510 587 35,000  Level FlightAware
02:52AM 63.2420 4.4430 85° East 509 586 35,000  Level FlightAware
02:53AM 63.2540 4.7470 85° East 508 585 35,000  Level FlightAware
02:54AM 63.2630 5.0230 86° East 506 582 35,000  Level FlightAware
02:54AM 63.2700 5.2370 86° East 507 583 35,000  Level FlightAware
02:55AM 63.2780 5.4730 86° East 508 585 35,000  Level FlightAware
02:56AM 63.2830 5.6400 86° East 509 586 35,000  Level FlightAware
02:57AM 63.2920 5.9520 86° East 510 587 35,000  Level FlightAware
02:58AM 63.3000 6.2470 86° East 511 588 35,000  Level FlightAware
02:58AM 63.3060 6.4660 86° East 513 590 35,000  Level FlightAware
02:59AM 63.3100 6.6610 87° East 514 592 35,000  Level FlightAware
03:00AM 63.3170 6.9560 87° East 514 592 35,000  Level FlightAware
03:00AM 63.3210 7.1850 88° East 514 592 35,000  Level FlightAware
03:01AM 63.3260 7.4400 87° East 515 593 35,000  Level FlightAware
03:02AM 63.3290 7.6500 88° East 517 595 35,000  Level FlightAware
03:03AM 63.3320 7.8630 88° East 520 598 35,000  Level FlightAware
03:03AM 63.3360 8.1080 88° East 520 598 35,000  Level FlightAware
03:04AM 63.3390 8.3480 88° East 520 598 35,000  Level FlightAware
03:05AM 63.3410 8.5570 89° East 520 598 35,000  Level FlightAware
03:06AM 63.3400 8.8560 90° East 518 596 35,000  Level FlightAware
03:06AM 63.3320 9.0870 94° East 517 595 35,000  Level FlightAware
03:07AM 63.3230 9.2990 95° East 516 594 35,000  Level FlightAware
03:08AM 63.3110 9.5380 96° East 516 594 35,000  Level FlightAware
03:09AM 63.2990 9.7840 96° East 514 592 35,000  Level FlightAware
03:09AM 63.2850 10.0390 97° East 513 590 35,000  Level FlightAware
03:10AM 63.2760 10.2200 96° East 513 590 35,000  Level FlightAware
03:11AM 63.2610 10.4780 97° East 513 590 35,000  Level FlightAware
03:12AM 63.2450 10.7570 97° East 510 587 35,000  Level FlightAware
03:13AM 63.2310 10.9870 98° East 511 588 35,000  Level FlightAware
03:13AM 63.2190 11.1980 97° East 512 589 35,000  Level FlightAware
03:14AM 63.2040 11.4280 98° East 511 588 35,000  Level FlightAware
03:15AM 63.1920 11.6140 98° East 511 588 35,000  Level FlightAware
03:15AM 63.1770 11.8400 98° East 511 588 35,000  Level FlightAware
03:16AM 63.1620 12.0700 98° East 511 588 35,000  Level FlightAware
03:17AM 63.1490 12.2580 99° East 511 588 35,000  Level FlightAware
03:17AM 63.1330 12.4890 99° East 511 588 35,000  Level FlightAware
03:18AM 63.1170 12.7190 99° East 512 589 35,000  Level FlightAware
03:19AM 63.1020 12.9290 99° East 511 588 35,000  Level FlightAware
03:20AM 63.0850 13.1550 99° East 511 588 35,000  Level FlightAware
03:20AM 63.0690 13.3630 100° East 511 588 35,000  Level FlightAware
03:21AM 63.0510 13.5950 100° East 509 586 35,000  Level FlightAware
03:22AM 63.0350 13.7990 100° East 509 586 35,000  Level FlightAware
03:22AM 63.0170 14.0240 100° East 509 586 35,000  Level FlightAware
03:23AM 63.0000 14.2290 100° East 509 586 35,000  Level FlightAware
03:24AM 62.9830 14.4310 100° East 509 586 35,000  Level FlightAware
03:24AM 62.9660 14.6350 100° East 510 587 35,000  Level FlightAware
03:25AM 62.9460 14.8630 101° East 511 588 35,000  Level FlightAware
03:26AM 62.9280 15.0680 101° East 512 589 35,000  Level FlightAware
03:27AM 62.9080 15.2960 101° East 513 590 35,000  Level FlightAware
03:27AM 62.8890 15.5010 101° East 512 589 35,000  Level FlightAware
03:28AM 62.8670 15.7300 102° East 512 589 35,000  Level FlightAware
03:29AM 62.8480 15.9320 102° East 511 588 35,000  Level FlightAware
03:29AM 62.8260 16.1600 102° East 510 587 35,000  Level FlightAware
03:30AM 62.8060 16.3640 102° East 510 587 35,000  Level FlightAware
03:31AM 62.7860 16.5650 102° East 512 589 35,000  Level FlightAware
03:31AM 62.7630 16.7900 102° East 512 589 35,000  Level FlightAware
03:32AM 62.7420 16.9910 103° East 512 589 35,000  Level FlightAware
03:33AM 62.7180 17.2190 103° East 512 589 35,000  Level FlightAware
03:34AM 62.6970 17.4200 103° East 511 588 35,000  Level FlightAware
03:34AM 62.6750 17.6190 103° East 511 588 35,000  Level FlightAware
03:35AM 62.6500 17.8440 104° East 509 586 35,000  Level FlightAware
03:36AM 62.6280 18.0430 103° East 509 586 35,000  Level FlightAware
03:36AM 62.6030 18.2670 104° East 511 588 35,000  Level FlightAware
03:37AM 62.5790 18.4710 104° East 511 588 35,000  Level FlightAware
03:38AM 62.5560 18.6680 104° East 511 588 35,000  Level FlightAware
03:38AM 62.5300 18.8920 104° East 513 590 35,000  Level FlightAware
03:39AM 62.5060 19.0940 104° East 512 589 35,000  Level FlightAware
03:40AM 62.4780 19.3170 105° East 514 592 35,000  Level FlightAware
03:41AM 62.4540 19.5130 105° East 512 589 35,000  Level FlightAware
03:41AM 62.4290 19.7150 105° East 511 588 35,000  Level FlightAware
03:42AM 62.4000 19.9340 106° East 512 589 35,000  Level FlightAware
03:43AM 62.3730 20.1300 106° East 511 588 35,000  Level FlightAware
03:43AM 62.3440 20.3280 107° East 511 588 35,000  Level FlightAware
03:44AM 62.3130 20.5470 107° East 511 588 35,000  Level FlightAware
03:45AM 62.2850 20.7390 107° East 512 589 35,000  Level FlightAware
03:45AM 62.2530 20.9570 107° East 512 589 35,000  Level FlightAware
03:46AM 62.2240 21.1530 108° East 512 589 35,000  Level FlightAware
03:47AM 62.1960 21.3430 107° East 512 589 35,000  Level FlightAware
03:47AM 62.1660 21.5410 108° East 515 593 35,000  Level FlightAware
03:50AM 62.0141 22.1812 117° Southeast  Level Estimated
03:51AM 61.9389 22.4911 117° Southeast  Level Estimated
03:52AM 61.8630 22.7995 117° Southeast  Level Estimated
03:53AM 61.7865 23.1064 118° Southeast  Level Estimated
03:54AM 61.7092 23.4118 118° Southeast  Level Estimated
03:55AM 61.6313 23.7156 118° Southeast  Level Estimated
03:56AM 61.5527 24.0179 119° Southeast  Level Estimated
03:56AM 61.7770 23.8750 119° Southeast 514 592 35,000  Level FlightAware
03:56AM 61.7420 24.0630 111° Southeast 513 590 35,000  Level FlightAware
03:57AM 61.7040 24.2690 111° Southeast 512 589 35,000  Level FlightAware
03:58AM 61.6680 24.4590 112° Southeast 514 592 35,000  Level FlightAware
03:58AM 61.6340 24.6370 112° Southeast 513 590 35,000  Level FlightAware
03:59AM 61.5920 24.8550 112° Southeast 514 592 35,000  Level FlightAware
04:00AM 61.5650 24.9990 111° Southeast 514 592 35,000  Level FlightAware
04:01AM 61.5170 25.2420 112° Southeast 513 590 35,000  Level FlightAware
04:01AM 61.4800 25.4270 113° Southeast 514 592 35,000  Level FlightAware
04:02AM 61.4440 25.6060 113° Southeast 512 589 35,000  Level FlightAware
04:03AM 61.4080 25.7890 112° Southeast 510 587 35,000  Level FlightAware
04:03AM 61.3710 25.9700 113° Southeast 510 587 35,000  Level FlightAware
04:04AM 61.3420 26.1110 113° Southeast 513 590 35,000  Level FlightAware
04:05AM 61.2950 26.3400 113° Southeast 512 589 35,000  Level FlightAware
04:05AM 61.2610 26.5020 114° Southeast 511 588 35,000  Level FlightAware
04:06AM 61.2080 26.7520 114° Southeast 509 586 35,000  Level FlightAware
04:07AM 61.1640 26.9580 114° Southeast 507 583 35,000  Level FlightAware
04:08AM 61.1260 27.1330 114° Southeast 505 581 35,000  Level FlightAware
04:09AM 61.0800 27.3460 114° Southeast 505 581 35,000  Level FlightAware
04:09AM 61.0470 27.4980 114° Southeast 506 582 35,000  Level FlightAware
04:10AM 61.0080 27.6730 115° Southeast 507 583 35,000  Level FlightAware
04:11AM 60.9610 27.8860 114° Southeast 505 581 35,000  Level FlightAware
04:11AM 60.9180 28.0770 115° Southeast 504 580 35,000  Level FlightAware
04:12AM 60.8800 28.2420 115° Southeast 503 579 35,000  Level FlightAware
04:13AM 60.7970 28.4710 127° Southeast 496 571 35,000  Level FlightAware
04:14AM 60.7070 28.6590 134° Southeast 497 572 35,000  Level FlightAware
04:15AM 60.6310 28.8180 134° Southeast 498 573 35,000  Level FlightAware
04:16AM 60.5520 28.9800 135° Southeast 499 574 35,000  Level FlightAware
04:16AM 60.5060 29.0760 134° Southeast 499 574 35,000  Level FlightAware
04:17AM 60.4190 29.2540 135° Southeast 500 575 35,000  Level FlightAware
04:18AM 60.3550 29.3850 135° Southeast 501 577 35,000  Level FlightAware
04:18AM 60.2830 29.5310 135° Southeast 501 577 35,000  Level FlightAware
04:19AM 60.2030 29.6910 135° Southeast 499 574 35,000  Level FlightAware
04:20AM 60.1490 29.7980 135° Southeast 498 573 35,000  Level FlightAware
04:20AM 60.0430 29.9550 143° Southeast 491 565 35,000  Level FlightAware
04:21AM 59.9780 30.0360 148° Southeast 491 565 35,000  Level FlightAware
04:23AM 59.8310 30.2490 144° Southeast 497 572 35,000  Level FlightAware
04:23AM 59.8000 30.3380 125° Southeast 499 574 35,000  Level FlightAware
04:23AM 59.7730 30.4910 109° East 505 581 35,000  Level FlightAware
04:24AM 59.7380 30.6440 114° Southeast 502 578 35,000  Level FlightAware
04:25AM 59.6730 30.7720 135° Southeast 489 563 35,000  Level FlightAware
04:25AM 59.5920 30.9020 141° Southeast 494 568 35,000  Level FlightAware
04:26AM 59.5230 31.0100 142° Southeast 495 570 35,000  Level FlightAware
04:27AM 59.4510 31.1240 141° Southeast 496 571 35,000  Level FlightAware
04:27AM 59.3710 31.2500 141° Southeast 495 570 35,000  Level FlightAware
04:28AM 59.2990 31.3640 141° Southeast 495 570 35,000  Level FlightAware
04:29AM 59.2270 31.4760 141° Southeast 496 571 35,000  Level FlightAware
04:30AM 59.1470 31.6010 141° Southeast 491 565 35,000  Level FlightAware
04:30AM 59.0840 31.7300 134° Southeast 505 581 35,000  Level FlightAware
04:31AM 59.0190 31.8920 128° Southeast 506 582 35,000  Level FlightAware
04:32AM 58.9620 32.0340 128° Southeast 504 580 35,000  Level FlightAware
04:32AM 58.9050 32.1780 127° Southeast 504 580 35,000  Level FlightAware
04:33AM 58.8410 32.3350 128° Southeast 498 573 35,000  Level FlightAware
04:34AM 58.7830 32.4780 128° Southeast 497 572 35,000  Level FlightAware
04:34AM 58.7230 32.6250 128° Southeast 496 571 35,000  Level FlightAware
04:35AM 58.6630 32.7710 128° Southeast 496 571 35,000  Level FlightAware
04:36AM 58.6100 32.9020 128° Southeast 496 571 35,000  Level FlightAware
04:37AM 58.5180 33.1190 129° Southeast 494 568 35,000  Level FlightAware
04:37AM 58.4630 33.2490 129° Southeast 493 567 35,000  Level FlightAware
04:38AM 58.4010 33.3950 129° Southeast 494 568 35,000  Level FlightAware
04:39AM 58.3410 33.5360 129° Southeast 501 577 35,000  Level FlightAware
04:39AM 58.2890 33.6570 129° Southeast 501 577 35,000  Level FlightAware
04:40AM 58.2120 33.8360 129° Southeast 500 575 35,000  Level FlightAware
04:41AM 58.1560 33.9660 129° Southeast 499 574 35,000  Level FlightAware
04:42AM 58.1110 34.0680 130° Southeast 499 574 35,000  Level FlightAware
04:42AM 58.0320 34.2490 129° Southeast 499 574 35,000 60 Level FlightAware
04:43AM 57.9890 34.3480 129° Southeast 500 575 35,100 660 Climbing FlightAware
04:44AM 57.9080 34.5330 129° Southeast 500 575 36,000 1,020 Climbing FlightAware
04:44AM 57.8520 34.6610 129° Southeast 497 572 36,800 720 Climbing FlightAware
04:45AM 57.7930 34.7930 130° Southeast 493 567 37,000 120 Climbing FlightAware
04:46AM 57.7280 34.9380 130° Southeast 492 566 37,000  Level FlightAware
04:46AM 57.6700 35.0560 133° Southeast 490 564 37,000  Level FlightAware
04:47AM 57.5900 35.2090 134° Southeast 490 564 37,000  Level FlightAware
04:48AM 57.5250 35.3320 135° Southeast 490 564 37,000  Level FlightAware
04:49AM 57.4630 35.4490 135° Southeast 492 566 37,000  Level FlightAware
04:49AM 57.3930 35.5800 135° Southeast 492 566 37,000  Level FlightAware
04:50AM 57.3340 35.6910 135° Southeast 490 564 37,000  Level FlightAware
04:51AM 57.2580 35.8320 135° Southeast 490 564 37,000  Level FlightAware
04:51AM 57.1990 35.9420 135° Southeast 491 565 37,000  Level FlightAware
04:52AM 57.1310 36.0680 135° Southeast 490 564 37,000  Level FlightAware
04:53AM 57.0590 36.2000 135° Southeast 492 566 37,000  Level FlightAware
04:54AM 56.9940 36.3190 135° Southeast 492 566 37,000  Level FlightAware
04:54AM 56.9210 36.4550 134° Southeast 493 567 37,000  Level FlightAware
04:55AM 56.8550 36.5780 134° Southeast 495 570 37,000  Level FlightAware
04:56AM 56.7890 36.6960 136° Southeast 495 570 37,000  Level FlightAware
04:56AM 56.7160 36.8240 136° Southeast 496 571 37,000  Level FlightAware
04:57AM 56.6530 36.9380 135° Southeast 496 571 37,000  Level FlightAware
04:58AM 56.5790 37.0670 136° Southeast 495 570 37,000  Level FlightAware
04:58AM 56.5090 37.1720 140° Southeast 489 563 37,000  Level FlightAware
04:59AM 56.4230 37.2270 161° South 492 566 37,000  Level FlightAware
05:00AM 56.3290 37.2860 161° South 491 565 37,000  Level FlightAware
05:01AM 56.2430 37.3300 164° South 491 565 37,000  Level FlightAware
05:01AM 56.1540 37.3740 165° South 492 566 37,000  Level FlightAware
05:02AM 56.0500 37.4260 164° South 492 566 37,000  Level FlightAware
05:03AM 55.9790 37.4610 165° South 491 565 37,000  Level FlightAware
05:03AM 55.8680 37.5160 164° South 489 563 37,000  Level FlightAware
05:04AM 55.7790 37.5600 164° South 487 560 37,000  Level FlightAware
05:05AM 55.7000 37.5990 164° South 485 558 37,000  Level FlightAware
05:05AM 55.6050 37.6450 165° South 487 560 37,000  Level FlightAware
05:06AM 55.5110 37.6910 165° South 489 563 37,000  Level FlightAware
05:07AM 55.4160 37.7370 165° South 490 564 37,000  Level FlightAware
05:08AM 55.3270 37.7790 165° South 491 565 37,000  Level FlightAware
05:08AM 55.2240 37.8290 165° South 493 567 37,000  Level FlightAware
05:09AM 55.1350 37.8710 165° South 496 571 37,000  Level FlightAware
05:10AM 55.0430 37.9150 165° South 497 572 37,000  Level FlightAware
05:10AM 54.9500 37.9590 165° South 498 573 37,000  Level FlightAware
05:11AM 54.8670 37.9980 165° South 499 574 37,000  Level FlightAware
05:12AM 54.7720 38.0420 165° South 500 575 37,000  Level FlightAware
05:12AM 54.6780 38.0860 165° South 502 578 37,000  Level FlightAware
05:13AM 54.5750 38.1330 165° South 502 578 37,000  Level FlightAware
05:14AM 54.4850 38.1750 165° South 499 574 37,000  Level FlightAware
05:15AM 54.3970 38.2150 165° South 495 570 37,000  Level FlightAware
05:15AM 54.2900 38.2630 165° South 494 568 37,000  Level FlightAware
05:16AM 54.2090 38.2980 166° South 489 563 37,000  Level FlightAware
05:17AM 54.1080 38.3410 166° South 489 563 37,000  Level FlightAware
05:17AM 54.0500 38.3660 166° South 489 563 37,000  Level FlightAware
05:18AM 53.9370 38.4140 166° South 487 560 37,000  Level FlightAware
05:19AM 53.8370 38.4570 166° South 489 563 37,000  Level FlightAware
05:19AM 53.7500 38.4940 166° South 491 565 37,000  Level FlightAware
05:20AM 53.6610 38.5260 168° South 492 566 37,000  Level FlightAware
05:21AM 53.5590 38.5570 170° South 492 566 37,000  Level FlightAware
05:22AM 53.4700 38.5860 169° South 493 567 37,000  Level FlightAware
05:22AM 53.3700 38.6180 169° South 496 571 37,000  Level FlightAware
05:23AM 53.2790 38.6480 169° South 500 575 37,000  Level FlightAware
05:24AM 53.1870 38.6780 169° South 505 581 37,000  Level FlightAware
05:24AM 53.0850 38.7110 169° South 507 583 37,000  Level FlightAware
05:25AM 52.9940 38.7400 169° South 509 586 37,000  Level FlightAware
05:26AM 52.8910 38.7730 169° South 508 585 37,000  Level FlightAware
05:26AM 52.7980 38.8030 169° South 507 583 37,000  Level FlightAware
05:27AM 52.7060 38.8320 169° South 505 581 37,000  Level FlightAware
05:28AM 52.6030 38.8640 169° South 504 580 37,000  Level FlightAware
05:29AM 52.5100 38.8940 169° South 504 580 37,000  Level FlightAware
05:29AM 52.4160 38.9240 169° South 506 582 37,000  Level FlightAware
05:29AM 52.3860 38.9540 149° Southeast 506 582 37,000  Level FlightAware
05:30AM 52.3340 39.0370 136° Southeast 504 580 37,000  Level FlightAware
05:31AM 52.2640 39.1710 130° Southeast 504 580 37,000  Level FlightAware
05:32AM 52.1600 39.3700 130° Southeast 504 580 37,000  Level FlightAware
05:33AM 52.1090 39.4690 130° Southeast 504 580 37,000  Level FlightAware
05:33AM 52.0460 39.5920 130° Southeast 504 580 37,000  Level FlightAware
05:34AM 51.9950 39.6910 130° Southeast 504 580 37,000  Level FlightAware
05:35AM 51.9440 39.7890 130° Southeast 504 580 37,000  Level FlightAware
05:35AM 51.8930 39.8880 130° Southeast 504 580 37,000  Level FlightAware
05:36AM 51.8420 39.9860 130° Southeast 504 580 37,000  Level FlightAware
05:37AM 51.7780 40.1090 130° Southeast 504 580 37,000  Level FlightAware
05:38AM 51.6260 40.3310 138° Southeast 508 585 37,000  Level FlightAware
05:38AM 51.5570 40.4350 137° Southeast 508 585 37,000  Level FlightAware
05:39AM 51.4790 40.5530 137° Southeast 509 586 37,000  Level FlightAware
05:40AM 51.4110 40.6560 137° Southeast 507 583 37,000  Level FlightAware
05:40AM 51.3340 40.7700 137° Southeast 506 582 37,000  Level FlightAware
05:41AM 51.2650 40.8730 137° Southeast 506 582 37,000  Level FlightAware
05:42AM 51.1980 40.9740 137° Southeast 505 581 37,000  Level FlightAware
05:43AM 51.1200 41.0880 137° Southeast 507 583 37,000  Level FlightAware
05:43AM 51.0500 41.1920 137° Southeast 508 585 37,000  Level FlightAware
05:44AM 50.9720 41.3060 137° Southeast 508 585 37,000  Level FlightAware
05:45AM 50.9040 41.4050 137° Southeast 510 587 37,000  Level FlightAware
05:45AM 50.8340 41.5070 137° Southeast 512 589 37,000  Level FlightAware
05:46AM 50.7550 41.6210 138° Southeast 513 590 37,000  Level FlightAware
05:47AM 50.6850 41.7210 138° Southeast 515 593 37,000  Level FlightAware
05:47AM 50.6050 41.8350 138° Southeast 515 593 37,000  Level FlightAware
05:48AM 50.5350 41.9360 137° Southeast 514 592 37,000  Level FlightAware
05:49AM 50.4640 42.0370 138° Southeast 516 594 37,000  Level FlightAware
05:50AM 50.3850 42.1480 138° Southeast 516 594 37,000  Level FlightAware
05:50AM 50.3140 42.2480 138° Southeast 515 593 37,000  Level FlightAware
05:51AM 50.2430 42.3470 138° Southeast 514 592 37,000  Level FlightAware
05:52AM 50.1630 42.4580 138° Southeast 515 593 37,000  Level FlightAware
05:52AM 50.0920 42.5560 138° Southeast 516 594 37,000  Level FlightAware
05:53AM 50.0130 42.6660 138° Southeast 515 593 37,000  Level FlightAware
05:54AM 49.9410 42.7640 139° Southeast 515 593 37,000  Level FlightAware
05:54AM 49.8600 42.8750 139° Southeast 515 593 37,000  Level FlightAware
05:55AM 49.7890 42.9720 139° Southeast 516 594 37,000  Level FlightAware
05:56AM 49.7180 43.0670 139° Southeast 517 595 37,000  Level FlightAware
05:57AM 49.6360 43.1780 139° Southeast 518 596 37,000  Level FlightAware
05:57AM 49.5690 43.2680 139° Southeast 518 596 37,000  Level FlightAware
05:58AM 49.4910 43.3720 139° Southeast 518 596 37,000  Level FlightAware
05:59AM 49.4120 43.4770 139° Southeast 519 597 37,000  Level FlightAware
05:59AM 49.3410 43.5710 139° Southeast 519 597 37,000  Level FlightAware
06:00AM 49.2730 43.6610 139° Southeast 517 595 37,000  Level FlightAware
06:01AM 49.1880 43.7780 138° Southeast 514 592 37,000  Level FlightAware
06:01AM 49.1120 43.8850 137° Southeast 514 592 37,000  Level FlightAware
06:02AM 49.0410 43.9850 137° Southeast 514 592 37,000  Level FlightAware
06:03AM 48.9730 44.0800 137° Southeast 515 593 37,000  Level FlightAware
06:04AM 48.8910 44.1930 138° Southeast 516 594 37,000  Level FlightAware
06:04AM 48.8100 44.3030 138° Southeast 517 595 37,000  Level FlightAware
06:05AM 48.7360 44.3900 142° Southeast 517 595 37,000  Level FlightAware
06:06AM 48.6460 44.4840 145° Southeast 518 596 37,000  Level FlightAware
06:06AM 48.5680 44.5630 146° Southeast 518 596 37,000  Level FlightAware
06:07AM 48.4880 44.6450 146° Southeast 518 596 37,000  Level FlightAware
06:08AM 48.4030 44.7320 146° Southeast 518 596 37,000  Level FlightAware
06:08AM 48.3200 44.8170 146° Southeast 518 596 37,000  Level FlightAware
06:09AM 48.2360 44.9010 146° Southeast 518 596 37,000  Level FlightAware
06:09AM 48.1990 44.9390 146° Southeast 37,000  Level FlightAware
06:10AM 48.1550 44.9830 146° Southeast 517 595 37,000  Level FlightAware
06:10AM 48.0920 45.0460 146° Southeast 517 595 37,000  Level FlightAware
06:11AM 47.9830 45.1550 146° Southeast 509 586 37,000  Level FlightAware
06:12AM 47.9110 45.2260 147° Southeast 510 587 37,000  Level FlightAware
06:13AM 47.8150 45.3200 147° Southeast 508 585 37,000  Level FlightAware
06:13AM 47.7360 45.3980 146° Southeast 508 585 37,000  Level FlightAware
06:14AM 47.6840 45.4490 147° Southeast 509 586 37,000  Level FlightAware
06:15AM 47.5920 45.5380 147° Southeast 508 585 37,000  Level FlightAware
06:15AM 47.5030 45.6250 147° Southeast 508 585 37,000  Level FlightAware
06:16AM 47.5730 45.5560 326° Northwest 504 580 37,000  Level FlightAware
06:17AM 47.3260 45.7950 147° Southeast 503 579 37,000  Level FlightAware
06:18AM 47.2220 45.8940 147° Southeast 505 581 37,000  Level FlightAware
06:18AM 47.1380 45.9730 147° Southeast 504 580 37,000  Level FlightAware
06:19AM 47.0310 46.0750 147° Southeast 502 578 37,000  Level FlightAware
06:20AM 46.9490 46.1530 147° Southeast 500 575 37,000  Level FlightAware
06:21AM 46.8730 46.2250 147° Southeast 499 574 37,000  Level FlightAware
06:22AM 46.7860 46.3060 147° Southeast 499 574 37,000  Level FlightAware
06:22AM 46.7160 46.3720 147° Southeast 501 577 37,000  Level FlightAware
06:23AM 46.5940 46.4860 147° Southeast 502 578 37,000  Level FlightAware
06:24AM 46.5150 46.5590 148° Southeast 500 575 37,000  Level FlightAware
06:25AM 46.4330 46.6350 147° Southeast 499 574 37,000  Level FlightAware
06:25AM 46.3600 46.7020 148° Southeast 499 574 37,000  Level FlightAware
06:26AM 46.2630 46.7910 148° Southeast 497 572 37,000  Level FlightAware
06:27AM 46.1670 46.8780 148° Southeast 495 570 37,000  Level FlightAware
06:28AM 46.0720 46.9490 153° Southeast 490 564 37,000  Level FlightAware
06:28AM 46.0000 47.0050 152° Southeast 489 563 37,000  Level FlightAware
06:29AM 45.9330 47.0590 151° Southeast 489 563 37,000  Level FlightAware
06:30AM 45.8660 47.1120 151° Southeast 489 563 37,000  Level FlightAware
06:30AM 45.8370 47.2490 107° East 503 579 37,000  Level FlightAware
06:31AM 45.7920 47.3480 123° Southeast 503 579 37,000  Level FlightAware
06:31AM 45.7420 47.4580 123° Southeast 503 579 37,000  Level FlightAware
06:32AM 45.6990 47.5530 123° Southeast 503 579 37,000  Level FlightAware
06:33AM 45.6140 47.7240 125° Southeast 502 578 37,000  Level FlightAware
06:34AM 45.5590 47.8400 124° Southeast 502 578 37,000  Level FlightAware
06:34AM 45.5500 47.8580 126° Southeast 502 578 37,000  Level FlightAware
06:35AM 45.4410 48.0840 124° Southeast 504 580 37,000  Level FlightAware
06:36AM 45.3940 48.1820 124° Southeast 504 580 37,000  Level FlightAware
06:36AM 45.3350 48.3020 125° Southeast 504 580 37,000  Level FlightAware
06:37AM 45.2890 48.3990 124° Southeast 503 579 37,000  Level FlightAware
06:38AM 45.1980 48.5830 125° Southeast 500 575 37,000  Level FlightAware
06:39AM 45.1430 48.6950 125° Southeast 500 575 37,000  Level FlightAware
06:40AM 45.0840 48.8150 125° Southeast 501 577 37,000  Level FlightAware
06:40AM 45.0300 48.9230 125° Southeast 501 577 37,000  Level FlightAware
06:41AM 44.9790 49.0240 125° Southeast 501 577 37,000  Level FlightAware
06:42AM 44.9170 49.1490 125° Southeast 500 575 37,000  Level FlightAware
06:42AM 44.8650 49.2540 125° Southeast 502 578 37,000  Level FlightAware
06:43AM 44.7950 49.3920 126° Southeast 502 578 37,000  Level FlightAware
06:44AM 44.7470 49.4870 125° Southeast 502 578 37,000  Level FlightAware
06:45AM 44.6750 49.6210 127° Southeast 504 580 37,000  Level FlightAware
06:45AM 44.6120 49.7380 127° Southeast 503 579 37,000  Level FlightAware
06:46AM 44.5500 49.8530 127° Southeast 505 581 37,000  Level FlightAware
06:47AM 44.4930 49.9580 127° Southeast 506 582 37,000  Level FlightAware
06:47AM 44.4300 50.0740 127° Southeast 503 579 37,000  Level FlightAware
06:48AM 44.3740 50.1760 128° Southeast 502 578 37,000  Level FlightAware
06:49AM 44.3140 50.2860 127° Southeast 505 581 37,000  Level FlightAware
06:50AM 44.2530 50.3950 128° Southeast 504 580 37,000  Level FlightAware
06:50AM 44.1760 50.5360 127° Southeast 499 574 37,000  Level FlightAware
06:51AM 44.1080 50.6600 127° Southeast 499 574 37,000  Level FlightAware
06:52AM 44.0610 50.7470 127° Southeast 499 574 37,000  Level FlightAware
06:53AM 44.0130 50.8350 127° Southeast 499 574 37,000  Level FlightAware
06:53AM 43.9660 50.9220 127° Southeast 499 574 37,000  Level FlightAware
06:54AM 43.8630 51.0960 129° Southeast 501 577 37,000  Level FlightAware
06:55AM 43.8160 51.1830 127° Southeast 501 577 37,000  Level FlightAware
06:56AM 43.7680 51.2710 127° Southeast 501 577 37,000  Level FlightAware
06:56AM 43.7210 51.3580 127° Southeast 501 577 37,000  Level FlightAware
06:57AM 43.6730 51.4450 127° Southeast 501 577 37,000  Level FlightAware
06:58AM 43.6140 51.5540 127° Southeast 501 577 37,000  Level FlightAware
06:58AM 43.5670 51.6400 127° Southeast 501 577 37,000  Level FlightAware
06:59AM 43.5190 51.7270 127° Southeast 501 577 37,000  Level FlightAware
07:00AM 43.4720 51.8140 127° Southeast 501 577 37,000  Level FlightAware
07:00AM 43.4240 51.9010 127° Southeast 501 577 37,000  Level FlightAware
07:01AM 43.3650 52.0090 127° Southeast 501 577 37,000  Level FlightAware
07:02AM 43.3180 52.0950 127° Southeast 501 577 37,000  Level FlightAware
07:03AM 43.2700 52.1820 127° Southeast 501 577 37,000  Level FlightAware
07:03AM 43.2230 52.2680 127° Southeast 501 577 37,000  Level FlightAware
07:06AM 42.9430 52.6135 138° Southeast  Level Estimated
07:07AM 42.8209 52.7627 138° Southeast  Level Estimated
07:08AM 42.6986 52.9113 138° Southeast  Level Estimated
07:09AM 42.5761 53.0594 138° Southeast  Level Estimated
07:10AM 42.4535 53.2068 138° Southeast  Level Estimated
07:11AM 42.3307 53.3537 139° Southeast  Level Estimated
07:12AM 42.2076 53.5000 139° Southeast  Level Estimated
07:13AM 42.0844 53.6458 139° Southeast  Level Estimated
07:14AM 41.9610 53.7910 139° Southeast  Level Estimated
07:15AM 41.8374 53.9356 139° Southeast  Level Estimated
07:16AM 41.7137 54.0797 139° Southeast  Level Estimated
07:17AM 41.5897 54.2232 139° Southeast  Level Estimated
07:18AM 41.4656 54.3661 139° Southeast  Level Estimated
07:19AM 41.3413 54.5085 139° Southeast  Level Estimated
07:20AM 41.2169 54.6504 139° Southeast  Level Estimated
07:21AM 41.0922 54.7917 139° Southeast  Level Estimated
07:22AM 40.9674 54.9325 140° Southeast  Level Estimated
07:23AM 40.8424 55.0728 140° Southeast  Level Estimated
07:24AM 40.7173 55.2125 140° Southeast  Level Estimated
07:25AM 40.5920 55.3517 140° Southeast  Level Estimated
07:26AM 40.4665 55.4904 140° Southeast  Level Estimated
07:27AM 40.3408 55.6286 140° Southeast  Level Estimated
07:28AM 40.2150 55.7663 140° Southeast  Level Estimated
07:29AM 40.0890 55.9034 140° Southeast  Level Estimated
07:30AM 39.9629 56.0401 140° Southeast  Level Estimated
07:31AM 39.8366 56.1762 140° Southeast  Level Estimated
07:32AM 39.7101 56.3118 140° Southeast  Level Estimated
07:33AM 39.5835 56.4470 141° Southeast  Level Estimated
07:34AM 39.4567 56.5816 141° Southeast  Level Estimated
07:35AM 39.3298 56.7158 141° Southeast  Level Estimated
07:36AM 39.2027 56.8495 141° Southeast  Level Estimated
07:37AM 39.0755 56.9827 141° Southeast  Level Estimated
07:38AM 38.9481 57.1154 141° Southeast  Level Estimated
07:39AM 38.8206 57.2476 141° Southeast  Level Estimated
07:40AM 38.6929 57.3793 141° Southeast  Level Estimated
07:41AM 38.5651 57.5106 141° Southeast  Level Estimated
07:42AM 38.4371 57.6415 141° Southeast  Level Estimated
07:43AM 38.3090 57.7718 141° Southeast  Level Estimated
07:44AM 38.1807 57.9017 141° Southeast  Level Estimated
07:45AM 38.0523 58.0312 142° Southeast  Level Estimated
07:46AM 37.9238 58.1601 142° Southeast  Level Estimated
07:47AM 37.7951 58.2887 142° Southeast  Level Estimated
07:48AM 37.6663 58.4168 142° Southeast  Level Estimated
07:49AM 37.5370 58.5447 142° Southeast  Level Estimated
07:50AM 37.4076 58.6722 142° Southeast  Level Estimated
07:51AM 37.2781 58.7993 142° Southeast  Level Estimated
07:52AM 37.1484 58.9259 142° Southeast  Level Estimated
07:53AM 37.0186 59.0521 142° Southeast  Level Estimated
07:54AM 36.8887 59.1778 142° Southeast  Level Estimated
07:55AM 36.7586 59.3032 142° Southeast  Level Estimated
07:56AM 36.6284 59.4281 142° Southeast  Level Estimated
07:57AM 36.4981 59.5526 142° Southeast  Level Estimated
07:58AM 36.3676 59.6766 143° Southeast  Level Estimated
07:59AM 36.2370 59.8003 143° Southeast  Level Estimated
08:00AM 36.1063 59.9235 143° Southeast  Level Estimated
08:01AM 35.9755 60.0463 143° Southeast  Level Estimated
08:02AM 35.8445 60.1688 143° Southeast  Level Estimated
08:03AM 35.7134 60.2908 143° Southeast  Level Estimated
08:04AM 35.5822 60.4124 143° Southeast  Level Estimated
08:05AM 35.4509 60.5336 143° Southeast  Level Estimated
08:06AM 35.3194 60.6544 143° Southeast  Level Estimated
08:07AM 35.1879 60.7749 143° Southeast  Level Estimated
08:08AM 35.0562 60.8949 143° Southeast  Level Estimated
08:09AM 34.9244 61.0145 143° Southeast  Level Estimated
08:10AM 34.7924 61.1338 143° Southeast  Level Estimated
08:11AM 34.6604 61.2527 143° Southeast  Level Estimated
08:12AM 34.5282 61.3712 144° Southeast  Level Estimated
08:13AM 34.3960 61.4893 144° Southeast  Level Estimated
08:14AM 34.2636 61.6071 144° Southeast  Level Estimated
08:15AM 34.1311 61.7245 144° Southeast  Level Estimated
08:16AM 33.9985 61.8415 144° Southeast  Level Estimated
08:17AM 33.8657 61.9582 144° Southeast  Level Estimated
08:18AM 33.7329 62.0745 144° Southeast  Level Estimated
08:19AM 33.6000 62.1904 144° Southeast  Level Estimated
08:20AM 33.4669 62.3060 144° Southeast  Level Estimated
08:21AM 33.3338 62.4212 144° Southeast  Level Estimated
08:22AM 33.2005 62.5361 144° Southeast  Level Estimated
08:23AM 33.0671 62.6506 144° Southeast  Level Estimated
08:24AM 32.9337 62.7648 144° Southeast  Level Estimated
08:25AM 32.8001 62.8786 144° Southeast  Level Estimated
08:26AM 32.6664 62.9921 144° Southeast  Level Estimated
08:27AM 32.5326 63.1053 144° Southeast  Level Estimated
08:28AM 32.3988 63.2181 145° Southeast  Level Estimated
08:29AM 32.2648 63.3305 145° Southeast  Level Estimated
08:30AM 32.1307 63.4427 145° Southeast  Level Estimated
08:31AM 31.9965 63.5545 145° Southeast  Level Estimated
08:32AM 31.8623 63.6660 145° Southeast  Level Estimated
08:33AM 31.7279 63.7772 145° Southeast  Level Estimated
08:34AM 31.5934 63.8880 145° Southeast  Level Estimated
08:35AM 31.4589 63.9986 145° Southeast  Level Estimated
08:36AM 31.3242 64.1088 145° Southeast  Level Estimated
08:37AM 31.1894 64.2187 145° Southeast  Level Estimated
08:38AM 31.0546 64.3282 145° Southeast  Level Estimated
08:39AM 30.9197 64.4375 145° Southeast  Level Estimated
08:40AM 30.7846 64.5465 145° Southeast  Level Estimated
08:41AM 30.6495 64.6551 145° Southeast  Level Estimated
08:42AM 30.5143 64.7635 145° Southeast  Level Estimated
08:43AM 30.3790 64.8715 145° Southeast  Level Estimated
08:44AM 30.2436 64.9793 145° Southeast  Level Estimated
08:45AM 30.1082 65.0867 146° Southeast  Level Estimated
08:46AM 29.9726 65.1939 146° Southeast  Level Estimated
08:47AM 29.8369 65.3008 146° Southeast  Level Estimated
08:48AM 29.7012 65.4073 146° Southeast  Level Estimated
08:49AM 29.5654 65.5136 146° Southeast  Level Estimated
08:50AM 29.4295 65.6196 146° Southeast  Level Estimated
08:51AM 29.2935 65.7254 146° Southeast  Level Estimated
08:52AM 29.1574 65.8308 146° Southeast  Level Estimated
08:53AM 29.0213 65.9360 146° Southeast  Level Estimated
08:54AM 28.8850 66.0408 146° Southeast  Level Estimated
08:55AM 28.7487 66.1455 146° Southeast  Level Estimated
08:56AM 28.6123 66.2498 146° Southeast  Level Estimated
08:57AM 28.4759 66.3539 146° Southeast  Level Estimated
08:58AM 28.3393 66.4577 146° Southeast  Level Estimated
08:59AM 28.2027 66.5612 146° Southeast  Level Estimated
09:00AM 28.0660 66.6645 146° Southeast  Level Estimated
09:01AM 27.9292 66.7675 146° Southeast  Level Estimated
09:02AM 27.7923 66.8702 146° Southeast  Level Estimated
09:03AM 27.6554 66.9727 146° Southeast  Level Estimated
09:04AM 27.5184 67.0750 146° Southeast  Level Estimated
09:05AM 27.3813 67.1769 147° Southeast  Level Estimated
09:06AM 27.2441 67.2786 147° Southeast  Level Estimated
09:07AM 27.1069 67.3801 147° Southeast  Level Estimated
09:08AM 26.9696 67.4813 147° Southeast  Level Estimated
09:09AM 26.8322 67.5823 147° Southeast  Level Estimated
09:10AM 26.6947 67.6831 147° Southeast  Level Estimated
09:11AM 26.5572 67.7835 147° Southeast  Level Estimated
09:12AM 26.4196 67.8838 147° Southeast  Level Estimated
09:13AM 26.2820 67.9838 147° Southeast  Level Estimated
09:14AM 26.1443 68.0836 147° Southeast  Level Estimated
09:15AM 26.0065 68.1831 147° Southeast  Level Estimated
09:16AM 25.8686 68.2824 147° Southeast  Level Estimated
09:17AM 25.7306 68.3815 147° Southeast  Level Estimated
09:18AM 25.5926 68.4803 147° Southeast  Level Estimated
09:19AM 25.4543 68.5792 147° Southeast  Level Estimated
09:20AM 25.3158 68.6778 147° Southeast  Level Estimated
09:21AM 25.1773 68.7762 147° Southeast  Level Estimated
09:22AM 25.0387 68.8744 147° Southeast  Level Estimated
09:23AM 24.9000 68.9723 147° Southeast  Level Estimated
09:24AM 24.7613 69.0700 147° Southeast  Level Estimated
09:25AM 24.6225 69.1675 147° Southeast  Level Estimated
09:26AM 24.4837 69.2648 147° Southeast  Level Estimated
09:27AM 24.3448 69.3619 148° Southeast  Level Estimated
09:28AM 24.2059 69.4588 148° Southeast  Level Estimated
09:28AM 27.4510 67.6150 148° Southeast 491 565 39,000  Level FlightAware
09:28AM 27.3790 67.6620 150° Southeast 489 563 39,000  Level FlightAware
09:29AM 24.0668 69.5554 148° Southeast  Level Estimated
09:29AM 27.2860 67.7210 151° Southeast 490 564 39,000  Level FlightAware
09:30AM 27.2080 67.7720 150° Southeast 490 564 39,000  Level FlightAware
09:31AM 27.1170 67.8300 150° Southeast 492 566 39,000  Level FlightAware
09:31AM 27.0380 67.8810 150° Southeast 494 568 39,000  Level FlightAware
09:32AM 26.9500 67.9370 150° Southeast 494 568 39,000  Level FlightAware
09:33AM 26.8700 67.9860 151° Southeast 495 570 39,000  Level FlightAware
09:33AM 26.7760 68.0430 152° Southeast 495 570 39,000  Level FlightAware
09:34AM 26.6970 68.0920 151° Southeast 495 570 39,000  Level FlightAware
09:35AM 26.6090 68.1460 151° Southeast 496 571 39,000  Level FlightAware
09:35AM 26.5270 68.1970 151° Southeast 496 571 39,000  Level FlightAware
09:36AM 26.4480 68.2450 151° Southeast 495 570 39,000  Level FlightAware
09:37AM 26.3540 68.3030 151° Southeast 495 570 39,000  Level FlightAware
09:38AM 26.2740 68.3510 152° Southeast 494 568 39,000  Level FlightAware
09:38AM 26.1890 68.3890 158° South 479 551 39,000  Level FlightAware
09:39AM 26.0960 68.4080 170° South 473 544 39,000  Level FlightAware
09:40AM 26.0100 68.4240 171° South 476 548 39,000  Level FlightAware
09:40AM 25.9090 68.4430 170° South 473 544 39,000  Level FlightAware
09:41AM 25.8230 68.4580 171° South 474 545 39,000  Level FlightAware
09:42AM 25.7270 68.4760 170° South 472 543 39,000  Level FlightAware
09:42AM 25.6430 68.4910 171° South 469 540 39,000  Level FlightAware
09:43AM 25.5550 68.5070 171° South 468 539 39,000  Level FlightAware
09:44AM 25.4570 68.5250 171° South 469 540 39,000  Level FlightAware
09:45AM 25.3720 68.5410 170° South 472 543 39,000  Level FlightAware
09:45AM 25.2750 68.5580 171° South 474 545 39,000  Level FlightAware
09:46AM 25.1890 68.5740 170° South 475 547 39,000  Level FlightAware
09:47AM 25.0890 68.5920 171° South 476 548 39,000  Level FlightAware
09:47AM 25.0050 68.6070 171° South 477 549 39,000  Level FlightAware
09:48AM 24.9150 68.6240 170° South 477 549 39,000  Level FlightAware
09:49AM 24.8180 68.6410 171° South 476 548 39,000  Level FlightAware
09:49AM 24.7300 68.6570 171° South 478 550 39,000  Level FlightAware
09:50AM 24.6430 68.6730 171° South 479 551 39,000  Level FlightAware
09:51AM 24.5440 68.6900 171° South 480 552 39,000  Level FlightAware
09:52AM 24.4560 68.7060 171° South 480 552 39,000  Level FlightAware
09:52AM 24.3560 68.7240 171° South 480 552 39,000  Level FlightAware
09:53AM 24.2690 68.7400 170° South 479 551 39,000  Level FlightAware
09:54AM 24.1730 68.7610 169° South 486 559 39,000  Level FlightAware
09:54AM 24.1230 68.7970 147° Southeast 506 582 39,000  Level FlightAware
09:54AM 24.1030 68.8280 125° Southeast 518 596 39,000  Level FlightAware
09:55AM 24.0720 68.9280 109° East 528 608 39,000  Level FlightAware
09:56AM 24.0440 69.0460 105° East 528 608 39,000  Level FlightAware
09:56AM 24.0190 69.1480 105° East 526 605 39,000  Level FlightAware
09:57AM 23.9900 69.2610 106° East 524 603 39,000  Level FlightAware
09:58AM 23.9630 69.3640 106° East 525 604 39,000  Level FlightAware
09:58AM 23.9410 69.4440 107° East 525 604 39,000  Level FlightAware
09:59AM 23.9130 69.5530 106° East 525 604 39,000  Level FlightAware
10:00AM 23.8900 69.6400 106° East 525 604 39,000  Level FlightAware
10:01AM 23.8510 69.7840 106° East 524 603 39,000  Level FlightAware
10:01AM 23.8270 69.8740 106° East 524 603 39,000  Level FlightAware
10:02AM 23.8040 69.9610 106° East 524 603 39,000  Level FlightAware
10:03AM 23.7620 70.1150 107° East 525 604 39,000  Level FlightAware
10:03AM 23.7350 70.2150 106° East 525 604 39,000  Level FlightAware
10:04AM 23.7080 70.3140 107° East 525 604 39,000  Level FlightAware
10:05AM 23.6840 70.4070 106° East 525 604 39,000  Level FlightAware
10:05AM 23.6610 70.4930 106° East 525 604 39,000  Level FlightAware
10:06AM 23.6330 70.6020 106° East 525 604 39,000  Level FlightAware
10:07AM 23.6100 70.6880 106° East 525 604 39,000  Level FlightAware
10:08AM 23.5870 70.7750 106° East 525 604 39,000  Level FlightAware
10:08AM 23.5300 70.9560 109° East 518 596 39,000  Level FlightAware
10:09AM 23.4860 71.0400 120° Southeast 517 595 39,000  Level FlightAware
10:10AM 23.4450 71.1170 120° Southeast 517 595 39,000  Level FlightAware
10:10AM 23.4040 71.1940 120° Southeast 517 595 39,000  Level FlightAware
10:11AM 23.3640 71.2700 120° Southeast 517 595 39,000  Level FlightAware
10:12AM 23.3130 71.3660 120° Southeast 517 595 39,000  Level FlightAware
10:13AM 23.2720 71.4430 120° Southeast 517 595 39,000  Level FlightAware
10:13AM 23.2310 71.5200 120° Southeast 517 595 39,000  Level FlightAware
10:14AM 23.1910 71.5960 120° Southeast 517 595 39,000  Level FlightAware
10:15AM 23.1500 71.6730 120° Southeast 517 595 39,000  Level FlightAware
10:15AM 22.7540 71.5210 199° South 495 570 39,000  Level FlightAware
10:16AM 22.6940 71.5630 147° Southeast 495 570 39,000  Level FlightAware
10:17AM 22.5920 71.6300 149° Southeast 492 566 39,000  Level FlightAware
10:17AM 22.5260 71.6750 148° Southeast 492 566 39,000  Level FlightAware
10:18AM 22.4610 71.7190 148° Southeast 492 566 39,000  Level FlightAware
10:19AM 22.3950 71.7630 148° Southeast 492 566 39,000  Level FlightAware
10:19AM 22.2590 71.8530 149° Southeast 498 573 39,000  Level FlightAware
10:20AM 22.1930 71.8980 148° Southeast 498 573 39,000  Level FlightAware
10:21AM 22.1260 71.9430 148° Southeast 498 573 39,000  Level FlightAware
10:21AM 22.0600 71.9880 148° Southeast 498 573 39,000  Level FlightAware
10:22AM 21.9930 72.0330 148° Southeast 498 573 39,000  Level FlightAware
10:23AM 21.9100 72.0880 148° Southeast 498 573 39,000  Level FlightAware
10:24AM 21.8440 72.1330 148° Southeast 498 573 39,000  Level FlightAware
10:24AM 21.7090 72.2010 155° Southeast 488 562 39,000 -120 Level FlightAware
10:25AM 21.5980 72.2310 166° South 485 558 38,900 -1,020 Descending FlightAware
10:26AM 21.4900 72.2580 167° South 489 563 37,300 -1,440 Descending FlightAware
10:26AM 21.4040 72.2810 166° South 481 554 36,900 -780 Descending FlightAware
10:27AM 21.3090 72.2970 171° South 474 545 36,200 -960 Descending FlightAware
10:28AM 21.2200 72.3090 173° South 470 541 35,600 -1,080 Descending FlightAware
10:28AM 21.1200 72.3230 173° South 470 541 34,700 -1,080 Descending FlightAware
10:29AM 21.0360 72.3370 171° South 471 542 34,100 -1,020 Descending FlightAware
10:30AM 20.9480 72.3510 172° South 469 540 33,400 -780 Descending FlightAware
10:31AM 20.8530 72.3650 172° South 465 535 33,000 -600 Descending FlightAware
10:31AM 20.7690 72.3790 171° South 470 541 32,600 -1,020 Descending FlightAware
10:32AM 20.6810 72.3920 172° South 469 540 31,700 -1,380 Descending FlightAware
10:33AM 20.5840 72.4060 172° South 462 532 30,700 -1,500 Descending FlightAware
10:33AM 20.4890 72.4200 172° South 451 519 29,500 -1,800 Descending FlightAware
10:34AM 20.4090 72.4320 172° South 440 506 28,200 -2,220 Descending FlightAware
10:35AM 20.3270 72.4430 173° South 437 503 26,600 -2,280 Descending FlightAware
10:35AM 20.2480 72.4550 172° South 434 499 25,200 -1,920 Descending FlightAware
10:36AM 20.1580 72.4680 172° South 418 481 23,900 -1,860 Descending FlightAware
10:37AM 20.0820 72.4790 172° South 412 474 22,600 -2,100 Descending FlightAware
10:38AM 19.9970 72.4910 172° South 410 472 21,000 -1,980 Descending FlightAware
10:38AM 19.9240 72.5020 172° South 402 463 19,800 -1,740 Descending FlightAware
10:39AM 19.8400 72.5140 172° South 397 457 18,600 -1,320 Descending FlightAware
10:40AM 19.7670 72.5250 172° South 391 450 18,000 -1,020 Descending FlightAware
10:40AM 19.6950 72.5350 173° South 388 447 17,300 -1,020 Descending FlightAware
10:41AM 19.6170 72.5460 172° South 385 443 16,600 -1,020 Descending FlightAware
10:42AM 19.5370 72.5580 172° South 385 443 15,800 -1,020 Descending FlightAware
10:42AM 19.4650 72.5680 173° South 380 437 15,200 -600 Descending FlightAware
10:43AM 19.3940 72.5780 172° South 378 435 15,000 -360 Descending FlightAware
10:44AM 19.3210 72.5990 165° South 374 430 14,700 -840 Descending FlightAware
10:44AM 19.3020 72.6200 134° Southeast 371 427 14,200 -1,800 Descending FlightAware
10:45AM 19.2870 72.6600 112° Southeast 367 422 13,500 -1,980 Descending FlightAware
10:45AM 19.2750 72.7410 99° East 368 423 11,900 -2,100 Descending FlightAware
10:46AM 19.2640 72.8130 99° East 364 419 10,600 -1,620 Descending FlightAware
10:47AM 19.2530 72.8820 100° East 344 396 9,800 -1,320 Descending FlightAware
10:47AM 19.2460 72.9280 99° East 317 365 9,100 -1,440 Descending FlightAware
10:48AM 19.2400 72.9640 100° East 304 350 8,500 -1,380 Descending FlightAware
10:48AM 19.2370 72.9870 98° East 294 338 8,200 -1,200 Descending FlightAware
10:48AM 19.2290 73.0290 101° East 278 320 7,600 -1,380 Descending FlightAware
10:49AM 19.2210 73.0460 116° Southeast 277 319 7,200 -1,680 Descending FlightAware
10:49AM 19.2020 73.0740 126° Southeast 274 315 6,500 -1,200 Descending FlightAware
10:49AM 19.1910 73.0890 128° Southeast 259 298 6,400 -720 Descending FlightAware
10:50AM 19.1720 73.1170 126° Southeast 233 268 6,000 -900 Descending FlightAware
10:50AM 19.1550 73.1400 128° Southeast 214 246 5,600 -1,080 Descending FlightAware
10:50AM 19.1470 73.1500 130° Southeast 210 242 5,300 -1,440 Descending FlightAware
10:51AM 19.1320 73.1580 153° Southeast 214 246 4,900 -1,560 Descending FlightAware
10:51AM 19.1150 73.1590 177° South 215 247 4,400 -1,500 Descending FlightAware
10:51AM 19.0940 73.1540 193° South 208 239 3,900 -900 Descending FlightAware
10:52AM 19.0860 73.1430 232° Southwest 198 228 3,900  Level FlightAware
10:52AM 19.0910 73.1160 281° West 191 220 3,900  Level FlightAware
10:52AM 19.0920 73.1060 276° West 194 223 3,900 -180 Level FlightAware
10:53AM 19.0920 73.0780 270° West 196 226 3,800 -600 Descending FlightAware
10:53AM 19.0910 73.0530 268° West 193 222 3,400 -1,080 Descending FlightAware
10:53AM 19.0910 73.0400 270° West 195 224 3,100 -1,080 Descending FlightAware
10:54AM 19.0910 73.0120 270° West 180 207 2,600 -900 Descending FlightAware
10:54AM 19.0900 72.9870 268° West 163 188 2,200 -900 Descending FlightAware
10:55AM 19.0900 72.9670 270° West 146 168 1,800 -780 Descending FlightAware
10:55AM 19.0900 72.9470 270° West 136 157 1,500 -720 Descending FlightAware
10:56AM 19.0900 72.9290 270° West 136 157 1,100 -660 Descending FlightAware
10:56AM 19.0890 72.9120 266° West 137 158 900 -600 Descending FlightAware
10:56AM 19.0890 72.9000 270° West 137 158 700 -840 Descending FlightAware
10:57AM 19.0890 72.8800 270° West 136 157 300 -840 Descending FlightAware